Página principal
METAR-TAF:

METAR-TAF

Aeroportos :

David Wayne Hooks Memorial Airport

Houston / Tomball, Texas, Estados Unidos

latitude: 30-04-03N, longitude: 095-33-22W, altura: 46 m

Observação actual do tempo

O boletim foi feito há 10 minutos, às 22:53 UTC
Vento 4 kt de noroeste
Temperatura 16°C
Humidade 63%
Pressão 1025 hPa
Visibilidade: 16.1 km
Céu limpo

METAR: KDWH 162253Z 31004KT 10SM CLR 16/09 A3027 RMK AO2 SLP251 T01560089

Hora: 17:03 (23:03 UTC)


TAF: em falta

Observações e previsões do tempo de mais de 4000 aeroportos (mensagens METAR e TAF).

As estações disponíveis são os pontos amarelos e vermelhos sobre o mapa.

Mova o rato sobre o mapa para ver o nome da estação.

Depois clique no ponto para visualizar as observações e previsões meteorológicas.

Para alterar o mapa : clique nos botões verdes com uma cruz preta para aumentar o zoom; no botão verde com uma pitada de zoom; ou nas setas verdes para mapas adjacentes.


METAR-TAF: